This is the latest recevied weather packets stored in our database for station/object N9DRW. If no packets are shown the sender has not sent any weather packets the latest 1 day(s).
| Time | Temp. | Humidity | Pressure | Rain* | Wind** | Luminosity | Snow |
|---|---|---|---|---|---|---|---|
| 1778086926 | 10.56° C | 45% | 0 hPa | 0 mm | - | - | - |
| 1778086326 | 11.11° C | 44% | 0 hPa | 0 mm | - | - | - |
| 1778085726 | 11.11° C | 43% | 0 hPa | 0 mm | - | - | - |
| 1778085126 | 10° C | 43% | 0 hPa | 0 mm | - | - | - |
| 1778084533 | 9.44° C | 48% | 0 hPa | 0 mm | - | - | - |
| 1778083926 | 10° C | 47% | 0 hPa | 0 mm | - | - | - |
| 1778082726 | 9.44° C | 48% | 0 hPa | 0 mm | - | - | - |
| 1778079126 | 8.89° C | 52% | 0 hPa | 0 mm | - | - | - |
| 1778077326 | 8.33° C | 51% | 0 hPa | 0 mm | - | - | - |
| 1778073726 | 5.56° C | 61% | 0 hPa | 0 mm | - | - | - |
| 1778071326 | 5° C | 64% | 0 hPa | 0 mm | - | - | - |
| 1778067726 | 3.89° C | 69% | 0 hPa | 0 mm | - | - | - |
| 1778067126 | 3.33° C | 69% | 0 hPa | 0 mm | - | - | - |
| 1778065926 | 3.33° C | 69% | 0 hPa | 0 mm | - | - | - |
| 1778064726 | 3.33° C | 68% | 0 hPa | 0 mm | - | - | - |
| 1778062926 | 3.89° C | 66% | 0 hPa | 0 mm | - | - | - |
| 1778061725 | 3.89° C | 64% | 0 hPa | 0 mm | - | - | - |
| 1778059926 | 3.89° C | 65% | 0 hPa | 0 mm | - | - | - |
| 1778059326 | 3.89° C | 66% | 0 hPa | 0 mm | - | - | - |
| 1778056926 | 3.33° C | 69% | 0 hPa | 0 mm | - | - | - |
| 1778055726 | 3.89° C | 66% | 0 hPa | 0 mm | - | - | - |
| 1778055126 | 3.89° C | 65% | 0 hPa | 0 mm | - | - | - |
| 1778054526 | 3.89° C | 63% | 0 hPa | 0 mm | - | - | - |
| 1778053326 | 4.44° C | 61% | 0 hPa | 0 mm | - | - | - |
| 1778052126 | 4.44° C | 60% | 0 hPa | 0 mm | - | - | - |
* Rain latest hour (hover to see other rain measurements)
** Current wind speed in m/s (hover to see current wind gust speed)